Lexington, MS (39095)

7:15 PM CDT on April 26, 2015 (GMT -0500)
Spring Lake | | Change Station
CLOSE
Current Station
Personal Weather Station
Location: Carrollton, MS
Elevation: 351 ft
Nearby Weather Stations
Active Advisory: Flood Warning Active Notice: Public Information Statement

Elev 351 ft 33.38 °N, 89.89 °W | Updated 5 minutes ago

Clear
Clear
75.6 °F
Feels Like 77 °F
N
0.7
Wind Variable Wind from NNE
Gusts 2.2 mph

Today
High -- | Low -- °F
--% Chance of Precip.
Yesterday
High -- | Low -- °F
Precip. -- in
6:17 AM 7:38 PM
First Quarter, 60% visible
Pressure 29.75 in
Visibility 10.0 miles
Clouds Clear
Heat Index 77 °F
Dew Point 63 °F
Humidity 66%
Rainfall 0.00 in
Snow Depth Not available.
UV 0 out of 12
Pollen 8.70 out of 12
Air Quality Not available.
Flu Activity No Activity
METAR KGWO 262353Z AUTO 35010KT 10SM CLR 23/16 A2975 RMK AO2 SLP073 T02280161 10283 20228 53002 $

More Conditions Fewer Conditions

Pressure 29.75 in
Visibility 10.0 miles
Clouds Clear
Heat Index 77 °F
Dew Point 63 °F
Humidity 66%
Rainfall 0.00 in
Snow Depth Not available.
UV 0 out of 12
Pollen 8.70 out of 12
Air Quality Not available.
Flu Activity No Activity
METAR KGWO 262353Z AUTO 35010KT 10SM CLR 23/16 A2975 RMK AO2 SLP073 T02280161 10283 20228 53002 $

More Conditions Fewer Conditions

The full scope of the disaster following a powerful 7.8-magnitude earthquake in Nepal may not come into view for days, but global charities are already sending emergency aid. Click to see how you can help.

10-Day Weather Forecast

Almanac

Astronomy

Apr. 26, 2015 Rise Set
Actual Time
Civil Twilight
Nautical Twilight
Astronomical Twilight
Moon
Length of Visible Light
Length of Day
Tomorrow will be .
, % of the Moon is Illuminated

Today's Extremes

State Highs State Lows

Community

WunderPhotos

Upload Photos

1,817,171 photos uploaded!

WunderBlogs® & News

Nearby

Air Quality

  Air Quality AQ Index Pollutant
Not available.

Snow Depth

Station Depth Elevation

Earthquake Activity

City Distance Mag. Time & Date
Minimum magnitude displayed is 2.5.

Coastal Water Temperatures

Place Temperature

Stations

Nearby Weather Stations

Station Location Temp. Windchill Dew Point Humidity Wind Precip. Elev Updated Type
                   
Flood Warning
Statement as of 8:58 AM CDT on April 26, 2015


The Flood Warning continues for
the Big Black River at west
* until further notice.
* At 7:45 am Sunday the stage was 18.2 feet.
* Minor flooding is occurring and minor flooding is forecast.
* Flood stage is 15.0 feet.
* Forecast... the river will continue rising to near 19.5 feet by just
after midnight tonight.
* Impact... at 19.0 feet... thousands of acres of agricultural land are
under water.


              Flood observed forecast 7 am crest
location stg stg day time Mon Tue Wed crest time date

Upper Big Black River
west 15 18.2 sun 08 am 19.4 18.5 17.8 19.5 01 am 04/27




Lat... Lon 3291 9006 3314 8990 3330 8981 3322 8963
      3313 8969 3285 8987